createdAt,value
2022-11-08T00:00:18.604Z,2.33
2022-11-08T00:02:45.842Z,2.22
2022-11-08T00:05:31.175Z,2.60
2022-11-08T00:08:16.998Z,2.00
2022-11-08T00:11:02.515Z,2.20
2022-11-08T00:13:48.491Z,2.03
2022-11-08T00:16:15.378Z,1.95
2022-11-08T00:18:42.196Z,1.90
2022-11-08T00:21:09.010Z,2.13
2022-11-08T00:23:35.870Z,2.13
2022-11-08T00:26:02.685Z,2.25
2022-11-08T00:28:29.475Z,2.22
2022-11-08T00:30:56.354Z,1.85
2022-11-08T00:33:23.168Z,2.38
2022-11-08T00:35:50.001Z,1.92
2022-11-08T00:38:17.179Z,2.20
2022-11-08T00:40:44.268Z,2.00
2022-11-08T00:43:11.150Z,1.73
2022-11-08T00:45:37.940Z,1.67
2022-11-08T00:48:05.335Z,1.75
2022-11-08T00:50:32.368Z,1.98
2022-11-08T00:52:59.121Z,2.08
2022-11-08T00:55:26.058Z,2.45
2022-11-08T00:57:59.665Z,2.13
2022-11-08T01:00:27.973Z,2.60
2022-11-08T01:03:13.703Z,1.80
2022-11-08T01:05:40.903Z,2.00
2022-11-08T01:08:07.812Z,2.35
2022-11-08T01:10:35.301Z,2.45
2022-11-08T01:13:02.265Z,2.33
2022-11-08T01:15:33.797Z,1.98
2022-11-08T01:18:00.835Z,2.00
2022-11-08T01:20:28.207Z,2.20
2022-11-08T01:22:55.053Z,2.40
2022-11-08T01:25:21.959Z,2.25
2022-11-08T01:27:48.900Z,2.60
2022-11-08T01:30:15.739Z,2.00
2022-11-08T01:32:42.602Z,2.85
2022-11-08T01:35:09.642Z,2.78
2022-11-08T01:37:36.556Z,2.58
2022-11-08T01:40:05.011Z,2.40
2022-11-08T01:42:33.071Z,2.20
2022-11-08T01:45:08.452Z,2.53
2022-11-08T01:47:35.576Z,2.88
2022-11-08T01:50:13.074Z,2.47
2022-11-08T01:52:55.570Z,2.58
2022-11-08T01:55:35.819Z,2.72
2022-11-08T01:58:17.201Z,2.33
2022-11-08T02:00:44.644Z,2.38
2022-11-08T02:03:17.081Z,2.88
2022-11-08T02:05:44.683Z,2.72
2022-11-08T02:08:24.840Z,2.55
2022-11-08T02:10:53.965Z,2.60
2022-11-08T02:13:26.075Z,2.45
2022-11-08T02:15:53.007Z,2.22
2022-11-08T02:18:23.801Z,2.22
2022-11-08T02:21:26.022Z,2.20
2022-11-08T02:24:00.462Z,2.75
2022-11-08T02:26:33.984Z,2.95
2022-11-08T02:29:35.435Z,3.05
2022-11-08T02:32:05.163Z,4.05
2022-11-08T02:34:43.848Z,2.53
2022-11-08T02:37:16.309Z,3.00
2022-11-08T02:39:43.256Z,2.90
2022-11-08T02:42:16.005Z,2.55
2022-11-08T02:44:43.142Z,2.47
2022-11-08T02:47:10.570Z,3.08
2022-11-08T02:49:37.938Z,3.05
2022-11-08T02:52:05.253Z,3.20
2022-11-08T02:54:33.218Z,2.90
2022-11-08T02:57:00.090Z,3.35
2022-11-08T02:59:27.115Z,3.17
2022-11-08T03:01:54.200Z,2.90
2022-11-08T03:04:21.271Z,2.92
2022-11-08T03:06:48.371Z,3.17
2022-11-08T03:09:15.382Z,3.60
2022-11-08T03:11:42.317Z,3.47
2022-11-08T03:14:09.310Z,3.80
2022-11-08T03:16:36.147Z,4.30
2022-11-08T03:19:03.441Z,3.75
2022-11-08T03:21:30.820Z,4.15
2022-11-08T03:23:57.697Z,3.90
2022-11-08T03:26:24.845Z,3.22
2022-11-08T03:28:52.724Z,4.20
2022-11-08T03:31:20.044Z,4.13
2022-11-08T03:33:46.870Z,3.85
2022-11-08T03:36:16.275Z,4.38
2022-11-08T03:38:43.330Z,4.07
2022-11-08T03:41:10.197Z,4.55
2022-11-08T03:43:37.170Z,4.75
2022-11-08T03:46:04.109Z,4.93
2022-11-08T03:48:30.989Z,4.82
2022-11-08T03:50:57.780Z,4.90
2022-11-08T03:53:24.675Z,4.65
2022-11-08T03:55:51.550Z,4.70
2022-11-08T03:58:18.728Z,4.45
2022-11-08T04:00:46.895Z,4.22
2022-11-08T04:03:13.829Z,4.88
2022-11-08T04:05:40.715Z,4.82
2022-11-08T04:08:07.817Z,4.78
2022-11-08T04:10:35.069Z,4.00
2022-11-08T04:13:20.885Z,4.38
2022-11-08T04:15:55.058Z,4.53
2022-11-08T04:18:41.059Z,4.80
2022-11-08T04:21:20.029Z,5.22
2022-11-08T04:23:52.369Z,5.25
2022-11-08T04:26:21.646Z,4.82
2022-11-08T04:28:48.653Z,4.72
2022-11-08T04:31:18.905Z,4.18
2022-11-08T04:33:46.623Z,4.28
2022-11-08T04:36:16.608Z,5.25
2022-11-08T04:38:47.134Z,4.30
2022-11-08T04:41:15.622Z,4.72
2022-11-08T04:43:43.110Z,5.07
2022-11-08T04:46:22.129Z,4.82
2022-11-08T04:48:53.182Z,4.93
2022-11-08T04:51:29.873Z,4.78
2022-11-08T04:54:02.814Z,4.85
2022-11-08T04:56:33.527Z,6.32
2022-11-08T04:59:01.008Z,5.88
2022-11-08T05:01:31.287Z,5.53
2022-11-08T05:03:58.814Z,6.00
2022-11-08T05:06:31.320Z,5.90
2022-11-08T05:09:00.641Z,5.90
2022-11-08T05:11:30.168Z,5.18
2022-11-08T05:13:57.533Z,5.95
2022-11-08T05:16:31.033Z,4.82
2022-11-08T05:18:58.565Z,5.78
2022-11-08T05:21:44.895Z,5.07
2022-11-08T05:24:15.123Z,5.00
2022-11-08T05:26:44.918Z,5.47
2022-11-08T05:29:14.605Z,5.32
2022-11-08T05:31:42.191Z,5.18
2022-11-08T05:34:09.217Z,5.18
2022-11-08T05:36:36.062Z,5.13
2022-11-08T05:39:03.108Z,5.75
2022-11-08T05:41:30.116Z,5.10
2022-11-08T05:43:57.546Z,5.07
2022-11-08T05:46:24.807Z,5.15
2022-11-08T05:48:52.202Z,6.13
2022-11-08T05:51:21.294Z,5.60
2022-11-08T05:53:49.003Z,5.03
2022-11-08T05:56:17.245Z,5.35
2022-11-08T05:58:44.887Z,5.07
2022-11-08T06:01:15.410Z,5.30
2022-11-08T06:03:42.674Z,5.53
2022-11-08T06:06:16.513Z,5.63
2022-11-08T06:08:49.045Z,6.13
2022-11-08T06:11:22.260Z,6.05
2022-11-08T06:13:50.058Z,7.15
2022-11-08T06:16:19.084Z,7.32
2022-11-08T06:18:47.012Z,7.70
2022-11-08T06:21:18.007Z,7.78
2022-11-08T06:23:45.398Z,7.70
2022-11-08T06:26:12.872Z,7.93
2022-11-08T06:28:39.782Z,8.43
2022-11-08T06:31:06.847Z,8.13
2022-11-08T06:33:34.398Z,8.70
2022-11-08T06:36:01.669Z,8.48
2022-11-08T06:38:29.289Z,8.88
2022-11-08T06:41:01.116Z,9.20
2022-11-08T06:43:28.550Z,9.52
2022-11-08T06:45:59.503Z,9.00
2022-11-08T06:48:28.845Z,8.18
2022-11-08T06:50:59.393Z,8.73
2022-11-08T06:53:26.268Z,9.43
2022-11-08T06:55:53.496Z,10.45
2022-11-08T06:58:20.380Z,9.07
2022-11-08T07:01:02.530Z,8.75
2022-11-08T07:03:34.496Z,8.50
2022-11-08T07:06:06.455Z,9.65
2022-11-08T07:08:35.295Z,9.63
2022-11-08T07:11:03.656Z,8.38
2022-11-08T07:13:33.233Z,9.10
2022-11-08T07:16:00.746Z,8.70
2022-11-08T07:18:33.760Z,8.60
2022-11-08T07:21:02.573Z,9.13
2022-11-08T07:23:30.406Z,7.93
2022-11-08T07:26:04.730Z,8.40
2022-11-08T07:28:32.229Z,8.23
2022-11-08T07:31:04.716Z,8.05
2022-11-08T07:33:35.013Z,8.52
2022-11-08T07:36:03.168Z,8.60
2022-11-08T07:38:33.618Z,8.13
2022-11-08T07:41:02.253Z,8.80
2022-11-08T07:43:30.189Z,8.50
2022-11-08T07:46:07.196Z,8.20
2022-11-08T07:48:35.650Z,9.45
2022-11-08T07:51:02.687Z,9.50
2022-11-08T07:53:29.772Z,9.50
2022-11-08T07:55:58.219Z,8.52
2022-11-08T07:58:25.559Z,8.70
2022-11-08T08:00:52.629Z,8.35
2022-11-08T08:03:19.868Z,7.95
2022-11-08T08:05:58.046Z,9.25
2022-11-08T08:08:28.487Z,9.00
2022-11-08T08:11:03.204Z,8.20
2022-11-08T08:13:30.857Z,9.77
2022-11-08T08:16:00.706Z,8.27
2022-11-08T08:18:30.123Z,8.50
2022-11-08T08:20:57.563Z,7.88
2022-11-08T08:23:24.513Z,7.43
2022-11-08T08:25:51.402Z,8.13
2022-11-08T08:28:21.420Z,7.75
2022-11-08T08:30:48.415Z,8.43
2022-11-08T08:33:33.206Z,7.55
2022-11-08T08:36:03.442Z,8.67
2022-11-08T08:38:32.910Z,6.75
2022-11-08T08:41:00.863Z,7.13
2022-11-08T08:43:29.207Z,7.53
2022-11-08T08:46:05.389Z,6.10
2022-11-08T08:48:33.589Z,6.75
2022-11-08T08:51:00.501Z,6.72
2022-11-08T08:53:27.436Z,5.60
2022-11-08T08:55:54.427Z,6.25
2022-11-08T08:58:22.488Z,6.07
2022-11-08T09:03:36.926Z,5.43
2022-11-08T09:06:04.398Z,5.13
2022-11-08T09:08:31.457Z,6.07
2022-11-08T09:11:01.051Z,6.07
2022-11-08T09:13:34.875Z,4.75
2022-11-08T09:16:13.180Z,6.40
2022-11-08T09:18:41.684Z,6.57
2022-11-08T09:21:09.692Z,5.90
2022-11-08T09:23:44.093Z,6.50
2022-11-08T09:26:19.994Z,5.60
2022-11-08T09:28:49.950Z,5.53
2022-11-08T09:31:16.909Z,5.32
2022-11-08T09:33:43.891Z,4.38
2022-11-08T09:36:13.774Z,4.97
2022-11-08T09:38:41.999Z,4.40
2022-11-08T09:41:43.206Z,4.22
2022-11-08T09:44:45.072Z,4.65
2022-11-08T09:47:23.085Z,4.40
2022-11-08T09:50:20.532Z,4.15
2022-11-08T09:53:11.992Z,4.00
2022-11-08T09:56:00.157Z,4.65
2022-11-08T09:59:10.244Z,3.80
2022-11-08T10:01:38.393Z,3.97
2022-11-08T10:04:19.238Z,4.05
2022-11-08T10:07:21.400Z,3.88
2022-11-08T10:10:33.968Z,3.10
2022-11-08T10:13:28.073Z,3.50
2022-11-08T10:16:28.157Z,3.42
2022-11-08T10:19:21.751Z,3.80
2022-11-08T10:21:57.370Z,3.35
2022-11-08T10:25:03.655Z,3.30
2022-11-08T10:27:41.613Z,3.58
2022-11-08T10:30:22.177Z,3.40
2022-11-08T10:32:55.617Z,3.30
2022-11-08T10:35:40.349Z,3.35
2022-11-08T10:38:30.745Z,2.78
2022-11-08T10:41:30.134Z,3.25
2022-11-08T10:44:25.596Z,3.20
2022-11-08T10:47:01.970Z,2.70
2022-11-08T10:49:38.730Z,2.78
2022-11-08T10:52:11.770Z,2.25
2022-11-08T10:54:59.475Z,2.20
2022-11-08T10:57:32.420Z,2.53
2022-11-08T11:00:22.123Z,2.45
2022-11-08T11:03:10.470Z,2.28
2022-11-08T11:05:58.975Z,2.28
2022-11-08T11:08:26.613Z,2.10
2022-11-08T11:10:53.790Z,2.20
2022-11-08T11:13:20.763Z,1.98
2022-11-08T11:16:13.992Z,2.10
2022-11-08T11:18:50.864Z,1.90
2022-11-08T11:21:19.716Z,2.10
2022-11-08T11:23:55.329Z,1.60
2022-11-08T11:26:34.209Z,1.70
2022-11-08T11:29:17.355Z,1.80
2022-11-08T11:31:47.934Z,1.30
2022-11-08T11:34:18.032Z,1.55
2022-11-08T11:36:55.045Z,1.20
2022-11-08T11:39:49.455Z,1.50
2022-11-08T11:42:47.800Z,1.10
2022-11-08T11:45:39.660Z,0.70
2022-11-08T11:48:21.248Z,1.05
2022-11-08T11:50:50.389Z,0.90
2022-11-08T11:53:25.992Z,1.33
2022-11-08T11:56:48.186Z,1.10
2022-11-08T11:59:53.124Z,1.05
2022-11-08T12:02:54.202Z,1.02
2022-11-08T12:05:44.200Z,1.38
2022-11-08T12:08:53.802Z,1.08
2022-11-08T12:11:44.407Z,1.10
2022-11-08T12:14:21.580Z,1.05
2022-11-08T12:16:59.974Z,1.15
2022-11-08T12:19:43.935Z,1.08
2022-11-08T12:22:34.486Z,1.58
2022-11-08T12:25:23.279Z,1.52
2022-11-08T12:28:27.536Z,1.13
2022-11-08T12:31:23.716Z,1.10
2022-11-08T12:34:29.988Z,1.02
2022-11-08T12:37:13.823Z,0.88
2022-11-08T12:39:59.587Z,1.05
2022-11-08T12:42:55.305Z,0.98
2022-11-08T12:48:54.360Z,1.77
2022-11-08T12:51:54.357Z,1.48
2022-11-08T12:54:46.145Z,1.50
2022-11-08T12:57:17.808Z,1.65
2022-11-08T13:00:29.298Z,1.75
2022-11-08T13:03:11.530Z,2.38
2022-11-08T13:05:53.819Z,1.90
2022-11-08T13:08:33.410Z,1.70
2022-11-08T13:11:12.325Z,2.03
2022-11-08T13:13:53.861Z,1.80
2022-11-08T13:16:26.024Z,2.00
2022-11-08T13:18:53.908Z,1.98
2022-11-08T13:21:38.550Z,1.90
2022-11-08T13:24:14.034Z,1.90
2022-11-08T13:26:56.976Z,1.88
2022-11-08T13:29:29.291Z,1.85
2022-11-08T13:32:21.092Z,2.25
2022-11-08T13:35:03.952Z,2.35
2022-11-08T13:37:58.352Z,2.00
2022-11-08T13:41:13.894Z,2.17
2022-11-08T13:43:41.417Z,2.22
2022-11-08T13:46:22.713Z,2.05
2022-11-08T13:49:01.840Z,2.80
2022-11-08T13:51:39.433Z,2.80
2022-11-08T13:54:21.421Z,3.00
2022-11-08T13:56:58.852Z,2.72
2022-11-08T13:59:31.989Z,3.45
2022-11-08T14:02:03.450Z,3.45
2022-11-08T14:04:41.331Z,2.95
2022-11-08T14:07:22.094Z,3.22
2022-11-08T14:10:21.063Z,3.58
2022-11-08T14:13:17.802Z,3.40
2022-11-08T14:15:58.217Z,3.17
2022-11-08T14:18:29.323Z,3.63
2022-11-08T14:20:56.945Z,3.17
2022-11-08T14:23:31.611Z,3.13
2022-11-08T14:26:00.315Z,3.75
2022-11-08T14:28:40.847Z,3.60
2022-11-08T14:31:32.159Z,4.47
2022-11-08T14:34:01.354Z,3.17
2022-11-08T14:36:31.562Z,3.20
2022-11-08T14:39:13.694Z,3.53
2022-11-08T14:41:47.274Z,3.58
2022-11-08T14:44:18.948Z,3.50
2022-11-08T14:46:48.389Z,3.10
2022-11-08T14:49:17.928Z,3.05
2022-11-08T14:51:45.803Z,3.40
2022-11-08T14:54:27.073Z,3.25
2022-11-08T14:56:55.864Z,3.67
2022-11-08T14:59:24.739Z,3.20
2022-11-08T15:01:52.000Z,3.70
2022-11-08T15:04:23.185Z,3.38
2022-11-08T15:06:57.800Z,3.13
2022-11-08T15:09:35.221Z,3.55
2022-11-08T15:12:14.854Z,3.60
2022-11-08T15:15:01.693Z,3.60
2022-11-08T15:17:39.871Z,3.70
2022-11-08T15:20:20.866Z,3.50
2022-11-08T15:22:48.854Z,3.47
2022-11-08T15:25:38.207Z,3.40
2022-11-08T15:28:21.692Z,3.22
2022-11-08T15:30:58.213Z,3.60
2022-11-08T15:33:34.050Z,3.85
2022-11-08T15:36:13.708Z,2.97
2022-11-08T15:38:47.565Z,3.70
2022-11-08T15:41:40.423Z,3.33
2022-11-08T15:44:14.982Z,3.55
2022-11-08T15:46:42.317Z,3.45
2022-11-08T15:49:29.437Z,3.80
2022-11-08T15:51:58.851Z,3.60
2022-11-08T15:54:27.001Z,3.60
2022-11-08T15:56:56.296Z,3.63
2022-11-08T15:59:28.440Z,3.70
2022-11-08T16:02:02.094Z,3.85
2022-11-08T16:04:32.244Z,3.55
2022-11-08T16:06:59.170Z,4.20
2022-11-08T16:09:26.022Z,4.70
2022-11-08T16:11:53.391Z,4.30
2022-11-08T16:14:24.223Z,4.40
2022-11-08T16:16:51.334Z,4.38
2022-11-08T16:19:25.026Z,3.38
2022-11-08T16:21:57.952Z,4.38
2022-11-08T16:24:25.052Z,4.57
2022-11-08T16:26:52.040Z,5.18
2022-11-08T16:29:23.774Z,4.72
2022-11-08T16:31:52.059Z,5.03
2022-11-08T16:34:20.377Z,4.70
2022-11-08T16:36:49.826Z,4.53
2022-11-08T16:40:03.226Z,4.82
2022-11-08T16:42:45.008Z,5.10
2022-11-08T16:45:15.555Z,5.25
2022-11-08T16:47:47.695Z,5.50
2022-11-08T16:50:29.485Z,5.00
2022-11-08T16:52:56.407Z,4.13
2022-11-08T16:55:23.358Z,4.85
2022-11-08T16:57:50.166Z,4.85
2022-11-08T17:00:20.038Z,5.03
2022-11-08T17:02:51.374Z,5.28
2022-11-08T17:05:25.702Z,4.82
2022-11-08T17:07:53.242Z,5.60
2022-11-08T17:10:24.994Z,4.95
2022-11-08T17:12:52.204Z,4.93
2022-11-08T17:15:27.095Z,4.30
2022-11-08T17:17:56.942Z,4.90
2022-11-08T17:20:25.813Z,4.70
2022-11-08T17:22:54.852Z,4.18
2022-11-08T17:25:23.775Z,4.88
2022-11-08T17:27:51.930Z,4.20
2022-11-08T17:30:25.364Z,5.88
2022-11-08T17:32:53.936Z,4.75
2022-11-08T17:35:21.110Z,5.32
2022-11-08T17:37:48.049Z,5.10
2022-11-08T17:40:14.838Z,5.78
2022-11-08T17:42:41.799Z,5.53
2022-11-08T17:45:10.817Z,5.50
2022-11-08T17:47:38.241Z,4.63
2022-11-08T17:50:06.872Z,5.35
2022-11-08T17:52:33.785Z,5.95
2022-11-08T17:55:00.673Z,5.40
2022-11-08T17:57:27.446Z,5.13
2022-11-08T17:59:54.371Z,5.68
2022-11-08T18:02:21.418Z,5.93
2022-11-08T18:04:48.511Z,5.03
2022-11-08T18:07:15.553Z,5.05
2022-11-08T18:09:42.597Z,6.03
2022-11-08T18:12:09.432Z,5.50
2022-11-08T18:14:36.349Z,5.50
2022-11-08T18:17:05.031Z,5.20
2022-11-08T18:19:32.389Z,5.55
2022-11-08T18:22:00.356Z,4.65
2022-11-08T18:24:27.751Z,5.18
2022-11-08T18:26:54.763Z,5.40
2022-11-08T18:29:21.682Z,4.90
2022-11-08T18:31:48.676Z,5.20
2022-11-08T18:34:15.676Z,4.53
2022-11-08T18:36:42.550Z,5.05
2022-11-08T18:39:09.685Z,5.15
2022-11-08T18:41:36.581Z,4.85
2022-11-08T18:44:03.781Z,4.68
2022-11-08T18:46:34.883Z,4.13
2022-11-08T18:49:05.188Z,4.50
2022-11-08T18:51:32.289Z,4.93
2022-11-08T18:53:59.219Z,5.07
2022-11-08T18:56:26.454Z,4.53
2022-11-08T18:58:53.924Z,4.93
2022-11-08T19:01:20.879Z,4.82
2022-11-08T19:03:47.805Z,4.47
2022-11-08T19:06:14.754Z,5.28
2022-11-08T19:08:41.650Z,4.60
2022-11-08T19:11:12.933Z,4.25
2022-11-08T19:13:41.532Z,5.20
2022-11-08T19:16:13.547Z,5.65
2022-11-08T19:18:42.397Z,4.70
2022-11-08T19:21:15.110Z,5.00
2022-11-08T19:23:42.806Z,5.03
2022-11-08T19:26:18.343Z,4.47
2022-11-08T19:28:46.358Z,5.78
2022-11-08T19:31:20.290Z,5.50
2022-11-08T19:33:50.013Z,5.50
2022-11-08T19:36:21.777Z,5.30
2022-11-08T19:38:49.593Z,4.43
2022-11-08T19:41:20.614Z,4.70
2022-11-08T19:43:49.212Z,4.13
2022-11-08T19:46:23.847Z,4.28
2022-11-08T19:48:52.611Z,3.80
2022-11-08T19:51:23.562Z,4.28
2022-11-08T19:53:58.926Z,4.47
2022-11-08T19:56:50.157Z,3.53
2022-11-08T19:59:14.223Z,3.50
2022-11-08T20:01:41.337Z,3.55
2022-11-08T20:04:10.881Z,3.67
2022-11-08T20:06:38.646Z,3.28
2022-11-08T20:09:06.504Z,3.20
2022-11-08T20:11:37.161Z,3.05
2022-11-08T20:14:05.802Z,3.60
2022-11-08T20:16:38.048Z,3.38
2022-11-08T20:19:16.397Z,3.70
2022-11-08T20:21:45.939Z,3.00
2022-11-08T20:24:14.358Z,3.85
2022-11-08T20:26:41.958Z,3.17
2022-11-08T20:29:09.407Z,3.20
2022-11-08T20:31:37.249Z,3.25
2022-11-08T20:34:07.303Z,3.55
2022-11-08T20:36:37.373Z,3.83
2022-11-08T20:39:07.660Z,3.63
2022-11-08T20:41:37.766Z,3.67
2022-11-08T20:44:07.826Z,3.63
2022-11-08T20:46:36.864Z,4.03
2022-11-08T20:49:05.244Z,3.65
2022-11-08T20:51:33.433Z,3.78
2022-11-08T20:54:01.230Z,3.58
2022-11-08T20:56:29.048Z,3.50
2022-11-08T20:58:56.141Z,3.60
2022-11-08T21:01:27.211Z,3.72
2022-11-08T21:03:55.159Z,3.95
2022-11-08T21:06:24.949Z,3.55
2022-11-08T21:09:07.047Z,3.85
2022-11-08T21:11:40.106Z,3.55
2022-11-08T21:14:07.334Z,3.72
2022-11-08T21:16:59.270Z,3.75
2022-11-08T21:19:22.710Z,3.30
2022-11-08T21:21:49.483Z,3.40
2022-11-08T21:24:17.211Z,3.92
2022-11-08T21:26:44.141Z,3.85
2022-11-08T21:29:10.967Z,3.20
2022-11-08T21:31:37.816Z,4.03
2022-11-08T21:34:04.675Z,3.88
2022-11-08T21:36:33.921Z,3.60
2022-11-08T21:39:00.742Z,4.03
2022-11-08T21:41:27.568Z,4.82
2022-11-08T21:43:54.553Z,3.95
2022-11-08T21:46:25.369Z,3.85
2022-11-08T21:48:58.424Z,4.22
2022-11-08T21:51:26.956Z,4.93
2022-11-08T21:53:56.400Z,4.15
2022-11-08T21:56:26.094Z,4.18
2022-11-08T21:58:53.832Z,4.85
2022-11-08T22:01:24.311Z,4.38
2022-11-08T22:03:55.779Z,4.32
2022-11-08T22:06:22.847Z,4.85
2022-11-08T22:08:50.091Z,5.00
2022-11-08T22:11:16.902Z,4.65
2022-11-08T22:13:43.986Z,5.03
2022-11-08T22:16:10.992Z,5.68
2022-11-08T22:21:40.982Z,6.07
2022-11-08T22:24:14.853Z,5.25
2022-11-08T22:26:42.075Z,5.57
2022-11-08T22:29:09.480Z,6.20
2022-11-08T22:31:36.991Z,5.40
2022-11-08T22:34:06.095Z,5.57
2022-11-08T22:36:32.943Z,6.47
2022-11-08T22:39:00.059Z,5.93
2022-11-08T22:41:28.504Z,6.63
2022-11-08T22:43:55.720Z,6.65
2022-11-08T22:46:22.974Z,6.00
2022-11-08T22:48:49.812Z,6.00
2022-11-08T22:51:16.817Z,6.93
2022-11-08T22:53:43.755Z,6.80
2022-11-08T22:56:12.054Z,6.13
2022-11-08T22:58:39.446Z,8.02
2022-11-08T23:01:10.610Z,7.28
2022-11-08T23:03:37.465Z,7.40
2022-11-08T23:06:04.328Z,7.57
2022-11-08T23:08:31.236Z,7.47
2022-11-08T23:11:21.000Z,6.85
2022-11-08T23:14:07.107Z,7.18
2022-11-08T23:16:42.777Z,7.10
2022-11-08T23:19:38.722Z,8.15
2022-11-08T23:22:34.557Z,7.28
2022-11-08T23:25:01.444Z,7.80
2022-11-08T23:27:47.104Z,9.65
2022-11-08T23:30:36.240Z,9.70
2022-11-08T23:33:06.453Z,8.45
2022-11-08T23:35:33.662Z,9.98
2022-11-08T23:38:00.571Z,10.23
2022-11-08T23:40:45.964Z,9.57
2022-11-08T23:43:38.996Z,9.25
2022-11-08T23:46:12.383Z,10.38
2022-11-08T23:48:40.689Z,10.15
2022-11-08T23:51:08.252Z,10.70
2022-11-08T23:53:37.036Z,9.57
2022-11-08T23:56:05.028Z,9.40
2022-11-08T23:58:33.674Z,10.50
